createdAt,value
2022-11-30T00:02:33.927Z,101628.92
2022-11-30T00:06:11.083Z,101634.06
2022-11-30T00:09:37.761Z,101637.50
2022-11-30T00:13:04.881Z,101638.02
2022-11-30T00:16:34.468Z,101638.01
2022-11-30T00:20:01.438Z,101638.86
2022-11-30T00:23:35.762Z,101642.10
2022-11-30T00:27:07.016Z,101640.90
2022-11-30T00:30:46.592Z,101641.58
2022-11-30T00:34:27.424Z,101643.11
2022-11-30T00:38:04.874Z,101645.67
2022-11-30T00:41:55.397Z,101649.79
2022-11-30T00:45:41.452Z,101652.70
2022-11-30T00:49:16.236Z,101650.33
2022-11-30T00:52:43.851Z,101651.70
2022-11-30T00:56:12.694Z,101648.80
2022-11-30T00:59:42.254Z,101649.52
2022-11-30T01:03:09.041Z,101647.10
2022-11-30T01:06:40.365Z,101648.33
2022-11-30T01:10:12.300Z,101649.00
2022-11-30T01:13:40.818Z,101649.18
2022-11-30T01:17:08.729Z,101647.28
2022-11-30T01:20:38.055Z,101650.04
2022-11-30T01:24:05.190Z,101653.11
2022-11-30T01:27:36.110Z,101655.16
2022-11-30T01:31:09.744Z,101660.14
2022-11-30T01:34:39.041Z,101662.19
2022-11-30T01:38:11.152Z,101661.48
2022-11-30T01:41:42.280Z,101654.78
2022-11-30T01:45:14.611Z,101659.23
2022-11-30T01:48:42.386Z,101662.81
2022-11-30T01:52:15.110Z,101664.52
2022-11-30T01:55:45.761Z,101663.65
2022-11-30T01:59:15.810Z,101665.88
2022-11-30T02:02:51.591Z,101667.95
2022-11-30T02:06:19.317Z,101671.54
2022-11-30T02:09:47.612Z,101670.67
2022-11-30T02:13:34.666Z,101671.40
2022-11-30T02:17:11.755Z,101671.24
2022-11-30T02:20:51.352Z,101674.70
2022-11-30T02:24:42.658Z,101671.46
2022-11-30T02:28:40.069Z,101673.31
2022-11-30T02:32:11.247Z,101674.88
2022-11-30T02:35:40.504Z,101677.95
2022-11-30T02:39:08.850Z,101676.90
2022-11-30T02:42:36.079Z,101683.42
2022-11-30T02:46:08.447Z,101687.16
2022-11-30T02:49:39.194Z,101687.83
2022-11-30T02:53:06.764Z,101685.59
2022-11-30T02:56:35.997Z,101684.20
2022-11-30T03:00:10.888Z,101682.81
2022-11-30T03:03:38.025Z,101678.67
2022-11-30T03:07:04.914Z,101678.65
2022-11-30T03:10:34.432Z,101678.45
2022-11-30T03:14:03.408Z,101679.32
2022-11-30T03:17:30.130Z,101683.28
2022-11-30T03:20:57.144Z,101682.09
2022-11-30T03:24:27.544Z,101686.55
2022-11-30T03:27:55.807Z,101688.81
2022-11-30T03:31:22.811Z,101691.05
2022-11-30T03:34:52.720Z,101690.90
2022-11-30T03:38:20.682Z,101696.39
2022-11-30T03:41:50.433Z,101696.05
2022-11-30T03:45:17.639Z,101698.43
2022-11-30T03:48:45.417Z,101700.98
2022-11-30T03:52:13.074Z,101701.80
2022-11-30T03:55:40.273Z,101703.83
2022-11-30T03:59:17.340Z,101711.01
2022-11-30T04:02:46.901Z,101711.14
2022-11-30T04:06:17.084Z,101714.70
2022-11-30T04:09:43.700Z,101712.94
2022-11-30T04:13:12.900Z,101716.84
2022-11-30T04:16:39.484Z,101724.02
2022-11-30T04:20:09.669Z,101721.27
2022-11-30T04:23:38.836Z,101721.44
2022-11-30T04:27:06.719Z,101724.17
2022-11-30T04:30:36.099Z,101725.89
2022-11-30T04:34:03.838Z,101731.42
2022-11-30T04:37:31.009Z,101732.79
2022-11-30T04:41:10.358Z,101729.75
2022-11-30T04:44:36.766Z,101729.77
2022-11-30T04:48:09.041Z,101730.27
2022-11-30T04:51:36.439Z,101732.16
2022-11-30T04:55:04.580Z,101736.66
2022-11-30T04:58:31.700Z,101738.14
2022-11-30T05:01:59.500Z,101739.47
2022-11-30T05:05:26.917Z,101743.73
2022-11-30T05:08:54.965Z,101746.10
2022-11-30T05:12:21.800Z,101748.49
2022-11-30T05:15:50.131Z,101751.91
2022-11-30T05:19:18.187Z,101751.02
2022-11-30T05:22:45.962Z,101753.57
2022-11-30T05:26:12.721Z,101755.23
2022-11-30T05:29:40.612Z,101755.40
2022-11-30T05:33:10.429Z,101755.56
2022-11-30T05:36:44.213Z,101756.77
2022-11-30T05:40:13.105Z,101759.84
2022-11-30T05:43:39.714Z,101762.05
2022-11-30T05:47:06.013Z,101766.99
2022-11-30T05:50:32.837Z,101767.14
2022-11-30T05:53:59.675Z,101772.61
2022-11-30T05:57:26.586Z,101775.01
2022-11-30T06:00:53.535Z,101777.40
2022-11-30T06:04:26.101Z,101778.09
2022-11-30T06:07:52.746Z,101783.36
2022-11-30T06:11:20.107Z,101782.84
2022-11-30T06:14:46.952Z,101788.63
2022-11-30T06:18:15.567Z,101790.98
2022-11-30T06:21:42.002Z,101793.00
2022-11-30T06:25:08.927Z,101791.79
2022-11-30T06:28:36.473Z,101796.58
2022-11-30T06:32:03.040Z,101801.31
2022-11-30T06:35:46.991Z,101804.70
2022-11-30T06:39:50.024Z,101805.03
2022-11-30T06:43:11.591Z,101807.29
2022-11-30T06:46:38.033Z,101807.45
2022-11-30T06:50:05.835Z,101810.02
2022-11-30T06:53:33.253Z,101811.77
2022-11-30T06:56:59.483Z,101812.68
2022-11-30T07:00:27.382Z,101817.90
2022-11-30T07:03:54.586Z,101818.27
2022-11-30T07:07:22.564Z,101823.73
2022-11-30T07:10:49.812Z,101826.46
2022-11-30T07:14:16.654Z,101829.39
2022-11-30T07:17:43.063Z,101830.91
2022-11-30T07:21:11.432Z,101833.98
2022-11-30T07:24:57.271Z,101836.04
2022-11-30T07:28:25.206Z,101839.80
2022-11-30T07:31:55.187Z,101850.24
2022-11-30T07:35:23.028Z,101855.39
2022-11-30T07:38:49.792Z,101856.26
2022-11-30T07:42:17.253Z,101858.35
2022-11-30T07:45:44.209Z,101862.62
2022-11-30T07:49:12.594Z,101863.23
2022-11-30T07:52:39.485Z,101862.48
2022-11-30T07:56:08.463Z,101862.67
2022-11-30T07:59:34.826Z,101861.34
2022-11-30T08:03:01.306Z,101863.27
2022-11-30T08:06:31.807Z,101861.09
2022-11-30T08:09:58.343Z,101862.34
2022-11-30T08:13:25.115Z,101865.83
2022-11-30T08:16:52.095Z,101870.30
2022-11-30T08:20:18.881Z,101870.95
2022-11-30T08:23:47.172Z,101871.59
2022-11-30T08:27:14.205Z,101872.92
2022-11-30T08:30:47.207Z,101869.48
2022-11-30T08:34:16.125Z,101874.44
2022-11-30T08:37:42.759Z,101873.37
2022-11-30T08:41:12.170Z,101875.07
2022-11-30T08:44:39.046Z,101883.58
2022-11-30T08:48:16.575Z,101892.42
2022-11-30T08:52:15.368Z,101887.63
2022-11-30T08:55:30.513Z,101893.75
2022-11-30T08:58:57.889Z,101900.55
2022-11-30T09:02:24.723Z,101907.10
2022-11-30T09:05:51.822Z,101910.23
2022-11-30T09:09:18.514Z,101915.61
2022-11-30T09:12:48.676Z,101917.50
2022-11-30T09:16:17.213Z,101915.93
2022-11-30T09:19:45.172Z,101916.23
2022-11-30T09:23:15.034Z,101911.67
2022-11-30T09:26:41.792Z,101914.98
2022-11-30T09:30:13.112Z,101915.02
2022-11-30T09:33:40.425Z,101919.67
2022-11-30T09:37:07.023Z,101920.53
2022-11-30T09:40:35.852Z,101925.48
2022-11-30T09:44:11.910Z,101929.39
2022-11-30T09:48:22.768Z,101930.66
2022-11-30T09:51:52.314Z,101919.44
2022-11-30T09:55:26.754Z,101911.85
2022-11-30T09:58:57.746Z,101912.52
2022-11-30T10:02:30.025Z,101907.02
2022-11-30T10:06:05.812Z,101902.91
2022-11-30T10:10:02.934Z,101911.00
2022-11-30T10:13:48.787Z,101905.52
2022-11-30T10:17:28.953Z,101911.84
2022-11-30T10:21:05.709Z,101910.38
2022-11-30T10:24:51.577Z,101906.36
2022-11-30T10:28:46.513Z,101899.90
2022-11-30T10:32:21.948Z,101903.73
2022-11-30T10:35:53.794Z,101900.30
2022-11-30T10:39:26.695Z,101899.10
2022-11-30T10:43:07.520Z,101899.41
2022-11-30T10:46:38.557Z,101896.30
2022-11-30T10:50:07.044Z,101898.75
2022-11-30T10:53:34.929Z,101897.04
2022-11-30T10:57:04.285Z,101895.84
2022-11-30T11:00:31.341Z,101893.91
2022-11-30T11:04:11.937Z,101890.11
2022-11-30T11:07:49.778Z,101892.00
2022-11-30T11:11:31.781Z,101893.90
2022-11-30T11:15:18.685Z,101892.33
2022-11-30T11:18:57.949Z,101897.63
2022-11-30T11:22:26.225Z,101899.02
2022-11-30T11:25:55.985Z,101897.15
2022-11-30T11:29:35.155Z,101902.69
2022-11-30T11:33:03.729Z,101895.00
2022-11-30T11:36:32.895Z,101898.31
2022-11-30T11:40:06.934Z,101896.44
2022-11-30T11:43:36.043Z,101897.14
2022-11-30T11:47:05.779Z,101900.92
2022-11-30T11:54:30.251Z,101902.95
2022-11-30T11:58:05.806Z,101899.48
2022-11-30T12:01:46.431Z,101900.31
2022-11-30T12:05:17.777Z,101905.95
2022-11-30T12:08:51.888Z,101915.70
2022-11-30T12:12:18.557Z,101911.70
2022-11-30T12:15:58.093Z,101910.83
2022-11-30T12:19:29.009Z,101914.70
2022-11-30T12:23:09.900Z,101916.53
2022-11-30T12:26:44.393Z,101919.23
2022-11-30T12:30:19.801Z,101915.42
2022-11-30T12:34:02.745Z,101916.75
2022-11-30T12:37:40.744Z,101917.43
2022-11-30T12:41:32.022Z,101919.13
2022-11-30T12:45:06.764Z,101914.86
2022-11-30T12:48:42.742Z,101915.25
2022-11-30T12:52:22.317Z,101915.11
2022-11-30T12:55:58.312Z,101915.30
2022-11-30T12:59:33.968Z,101914.86
2022-11-30T13:03:30.748Z,101916.75
2022-11-30T13:07:02.704Z,101914.70
2022-11-30T13:10:36.857Z,101912.97
2022-11-30T13:14:06.243Z,101918.58
2022-11-30T13:17:33.227Z,101917.19
2022-11-30T13:21:07.077Z,101919.42
2022-11-30T13:24:41.108Z,101918.08
2022-11-30T13:28:16.579Z,101919.30
2022-11-30T13:31:49.177Z,101918.61
2022-11-30T13:35:43.832Z,101909.97
2022-11-30T13:39:37.578Z,101915.25
2022-11-30T13:43:04.289Z,101920.29
2022-11-30T13:46:31.355Z,101925.03
2022-11-30T13:50:01.475Z,101923.49
2022-11-30T13:53:34.209Z,101924.42
2022-11-30T13:57:01.273Z,101923.76
2022-11-30T14:00:50.079Z,101927.88
2022-11-30T14:04:34.097Z,101932.92
2022-11-30T14:08:32.833Z,101935.23
2022-11-30T14:11:59.759Z,101934.74
2022-11-30T14:16:00.758Z,101937.48
2022-11-30T14:19:30.402Z,101939.52
2022-11-30T14:22:57.437Z,101941.09
2022-11-30T14:26:33.875Z,101939.55
2022-11-30T14:30:07.462Z,101939.36
2022-11-30T14:33:44.528Z,101938.14
2022-11-30T14:37:20.288Z,101939.17
2022-11-30T14:40:58.011Z,101938.77
2022-11-30T14:44:25.410Z,101937.20
2022-11-30T14:47:57.777Z,101936.52
2022-11-30T14:51:29.188Z,101936.65
2022-11-30T14:55:00.650Z,101936.11
2022-11-30T14:58:32.583Z,101942.77
2022-11-30T15:02:02.425Z,101939.80
2022-11-30T15:05:33.129Z,101942.86
2022-11-30T15:09:02.551Z,101945.66
2022-11-30T15:12:32.497Z,101948.25
2022-11-30T15:15:59.771Z,101952.42
2022-11-30T15:19:28.424Z,101951.42
2022-11-30T15:22:55.065Z,101952.35
2022-11-30T15:26:26.007Z,101955.11
2022-11-30T15:29:59.407Z,101961.61
2022-11-30T15:33:31.875Z,101961.63
2022-11-30T15:37:04.527Z,101963.73
2022-11-30T15:40:36.231Z,101967.31
2022-11-30T15:44:03.691Z,101976.35
2022-11-30T15:47:37.298Z,101975.11
2022-11-30T15:51:02.807Z,101975.73
2022-11-30T15:54:50.396Z,101974.80
2022-11-30T15:58:37.319Z,101978.04
2022-11-30T16:02:08.948Z,101980.02
2022-11-30T16:05:41.183Z,101979.31
2022-11-30T16:09:22.811Z,101979.31
2022-11-30T16:12:52.928Z,101977.58
2022-11-30T16:16:24.277Z,101976.73
2022-11-30T16:19:51.048Z,101976.40
2022-11-30T16:23:20.273Z,101973.51
2022-11-30T16:26:54.507Z,101978.64
2022-11-30T16:30:23.810Z,101978.36
2022-11-30T16:33:56.555Z,101975.35
2022-11-30T16:37:27.064Z,101976.07
2022-11-30T16:40:56.280Z,101978.90
2022-11-30T16:44:25.391Z,101978.48
2022-11-30T16:47:52.493Z,101976.80
2022-11-30T16:51:26.001Z,101975.41
2022-11-30T16:54:53.319Z,101981.39
2022-11-30T16:58:23.699Z,101987.03
2022-11-30T17:01:53.533Z,101983.08
2022-11-30T17:05:24.259Z,101985.59
2022-11-30T17:08:53.622Z,101990.70
2022-11-30T17:12:24.923Z,101987.55
2022-11-30T17:15:53.874Z,101987.90
2022-11-30T17:19:25.187Z,101988.06
2022-11-30T17:22:54.032Z,101986.88
2022-11-30T17:26:25.611Z,101989.77
2022-11-30T17:29:54.223Z,101991.45
2022-11-30T17:33:22.129Z,101992.96
2022-11-30T17:36:52.171Z,101990.23
2022-11-30T17:40:19.255Z,101999.02
2022-11-30T17:43:54.482Z,102001.11
2022-11-30T17:47:22.763Z,102005.27
2022-11-30T17:50:58.081Z,102008.18
2022-11-30T17:54:27.650Z,102015.21
2022-11-30T17:58:11.674Z,102017.86
2022-11-30T18:01:41.849Z,102016.88
2022-11-30T18:05:19.534Z,102017.40
2022-11-30T18:08:50.173Z,102018.42
2022-11-30T18:12:24.901Z,102017.52
2022-11-30T18:15:52.234Z,102019.67
2022-11-30T18:19:21.620Z,102020.66
2022-11-30T18:22:51.824Z,102027.48
2022-11-30T18:26:22.578Z,102034.29
2022-11-30T18:29:49.127Z,102028.98
2022-11-30T18:33:17.415Z,102033.86
2022-11-30T18:36:44.199Z,102034.55
2022-11-30T18:40:12.847Z,102034.06
2022-11-30T18:43:40.577Z,102035.40
2022-11-30T18:47:07.929Z,102037.46
2022-11-30T18:50:36.661Z,102038.56
2022-11-30T18:54:04.962Z,102037.39
2022-11-30T18:57:33.044Z,102040.02
2022-11-30T19:01:08.522Z,102038.33
2022-11-30T19:04:40.338Z,102034.61
2022-11-30T19:08:11.847Z,102040.16
2022-11-30T19:11:43.926Z,102042.45
2022-11-30T19:15:16.711Z,102044.09
2022-11-30T19:18:47.626Z,102048.23
2022-11-30T19:22:20.021Z,102044.02
2022-11-30T19:25:49.148Z,102041.48
2022-11-30T19:29:26.111Z,102048.35
2022-11-30T19:33:01.955Z,102050.38
2022-11-30T19:36:33.854Z,102051.04
2022-11-30T19:40:04.443Z,102052.02
2022-11-30T19:43:40.020Z,102049.73
2022-11-30T19:47:09.845Z,102044.68
2022-11-30T19:50:41.617Z,102053.09
2022-11-30T19:54:17.365Z,102053.93
2022-11-30T19:57:50.169Z,102052.50
2022-11-30T20:01:24.173Z,102054.02
2022-11-30T20:04:57.110Z,102054.88
2022-11-30T20:08:33.869Z,102054.88
2022-11-30T20:12:02.025Z,102055.08
2022-11-30T20:15:29.905Z,102056.79
2022-11-30T20:19:02.697Z,102055.80
2022-11-30T20:22:30.938Z,102054.30
2022-11-30T20:25:59.334Z,102056.10
2022-11-30T20:29:30.290Z,102058.42
2022-11-30T20:32:57.380Z,102056.80
2022-11-30T20:36:26.945Z,102058.91
2022-11-30T20:39:54.481Z,102056.69
2022-11-30T20:43:21.266Z,102058.77
2022-11-30T20:46:48.941Z,102059.45
2022-11-30T20:50:16.442Z,102059.21
2022-11-30T20:53:44.149Z,102062.21
2022-11-30T20:57:12.972Z,102067.81
2022-11-30T21:00:39.792Z,102067.95
2022-11-30T21:04:08.898Z,102065.87
2022-11-30T21:07:36.294Z,102068.59
2022-11-30T21:11:07.589Z,102064.29
2022-11-30T21:14:35.349Z,102067.84
2022-11-30T21:18:03.458Z,102073.48
2022-11-30T21:21:33.364Z,102072.42
2022-11-30T21:25:07.666Z,102078.05
2022-11-30T21:28:38.408Z,102078.89
2022-11-30T21:32:11.088Z,102078.73
2022-11-30T21:35:41.466Z,102083.05
2022-11-30T21:39:09.516Z,102081.35
2022-11-30T21:42:37.330Z,102079.19
2022-11-30T21:46:09.717Z,102073.45
2022-11-30T21:49:41.739Z,102071.27
2022-11-30T21:53:11.329Z,102072.99
2022-11-30T21:56:40.231Z,102073.04
2022-11-30T22:00:08.133Z,102073.74
2022-11-30T22:03:34.981Z,102073.52
2022-11-30T22:07:01.617Z,102070.24
2022-11-30T22:10:28.948Z,102075.20
2022-11-30T22:13:57.449Z,102073.65
2022-11-30T22:17:24.149Z,102073.79
2022-11-30T22:20:51.338Z,102072.05
2022-11-30T22:24:19.033Z,102066.37
2022-11-30T22:27:45.957Z,102070.12
2022-11-30T22:31:14.779Z,102067.51
2022-11-30T22:34:42.256Z,102067.64
2022-11-30T22:38:09.248Z,102067.77
2022-11-30T22:41:36.835Z,102067.76
2022-11-30T22:45:03.404Z,102067.95
2022-11-30T22:48:32.199Z,102067.48
2022-11-30T22:51:59.120Z,102066.87
2022-11-30T22:55:26.481Z,102063.33
2022-11-30T22:58:54.926Z,102062.36
2022-11-30T23:02:24.276Z,102055.91
2022-11-30T23:05:50.782Z,102055.46
2022-11-30T23:09:20.279Z,102055.00
2022-11-30T23:12:59.686Z,102047.47
2022-11-30T23:16:27.581Z,102048.30
2022-11-30T23:19:55.904Z,102044.31
2022-11-30T23:23:25.879Z,102043.45
2022-11-30T23:26:53.380Z,102041.20
2022-11-30T23:30:20.580Z,102043.58
2022-11-30T23:33:47.943Z,102045.48
2022-11-30T23:37:15.446Z,102045.64
2022-11-30T23:40:42.150Z,102045.62
2022-11-30T23:44:09.794Z,102042.49
2022-11-30T23:47:38.438Z,102041.45
2022-11-30T23:51:08.299Z,102040.77
2022-11-30T23:54:36.059Z,102038.56
2022-11-30T23:58:03.127Z,102039.59
